createdAt,value
2023-04-07T00:01:08.028Z,12.88
2023-04-07T00:03:35.736Z,12.90
2023-04-07T00:06:03.287Z,14.32
2023-04-07T00:08:30.369Z,13.25
2023-04-07T00:10:58.465Z,13.82
2023-04-07T00:13:26.347Z,13.93
2023-04-07T00:15:53.695Z,15.93
2023-04-07T00:18:20.876Z,17.50
2023-04-07T00:20:48.312Z,17.02
2023-04-07T00:23:15.633Z,15.70
2023-04-07T00:25:43.094Z,17.20
2023-04-07T00:28:10.171Z,16.38
2023-04-07T00:30:37.558Z,16.35
2023-04-07T00:33:04.699Z,16.02
2023-04-07T00:35:37.183Z,18.15
2023-04-07T00:38:04.262Z,17.13
2023-04-07T00:40:31.568Z,17.42
2023-04-07T00:42:58.616Z,16.45
2023-04-07T00:45:25.924Z,16.98
2023-04-07T00:47:53.140Z,17.25
2023-04-07T00:50:20.573Z,17.42
2023-04-07T00:52:47.595Z,19.08
2023-04-07T00:55:14.919Z,16.77
2023-04-07T00:57:42.001Z,17.30
2023-04-07T01:00:10.033Z,18.10
2023-04-07T01:02:56.719Z,18.40
2023-04-07T01:05:50.657Z,18.10
2023-04-07T01:08:24.030Z,17.73
2023-04-07T01:10:59.995Z,16.70
2023-04-07T01:13:33.451Z,17.73
2023-04-07T01:16:17.314Z,16.92
2023-04-07T01:18:53.553Z,16.30
2023-04-07T01:21:25.476Z,15.85
2023-04-07T01:24:05.621Z,16.10
2023-04-07T01:26:33.727Z,15.73
2023-04-07T01:29:19.615Z,17.45
2023-04-07T01:31:49.430Z,19.40
2023-04-07T01:34:18.307Z,16.52
2023-04-07T01:36:47.097Z,17.55
2023-04-07T01:39:15.610Z,16.17
2023-04-07T01:41:44.692Z,16.70
2023-04-07T01:44:12.666Z,18.88
2023-04-07T01:46:40.391Z,17.48
2023-04-07T01:49:08.120Z,17.50
2023-04-07T01:51:36.001Z,18.35
2023-04-07T01:54:04.304Z,18.48
2023-04-07T01:56:31.853Z,19.30
2023-04-07T01:59:01.113Z,18.65
2023-04-07T02:01:29.813Z,18.90
2023-04-07T02:04:07.802Z,17.80
2023-04-07T02:06:57.853Z,19.60
2023-04-07T02:09:38.469Z,18.05
2023-04-07T02:12:09.087Z,18.88
2023-04-07T02:14:41.093Z,19.13
2023-04-07T02:17:11.820Z,19.25
2023-04-07T02:19:39.577Z,18.92
2023-04-07T02:22:07.099Z,17.00
2023-04-07T02:24:34.150Z,17.35
2023-04-07T02:27:02.220Z,17.95
2023-04-07T02:29:29.570Z,17.33
2023-04-07T02:31:56.935Z,19.33
2023-04-07T02:34:23.905Z,17.13
2023-04-07T02:36:51.572Z,16.25
2023-04-07T02:39:18.739Z,18.40
2023-04-07T02:41:46.219Z,18.98
2023-04-07T02:44:13.366Z,19.05
2023-04-07T02:46:41.376Z,17.10
2023-04-07T02:49:08.416Z,15.95
2023-04-07T02:51:35.851Z,15.65
2023-04-07T02:54:02.855Z,15.70
2023-04-07T02:56:31.112Z,15.95
2023-04-07T02:58:58.216Z,14.82
2023-04-07T03:01:26.467Z,14.48
2023-04-07T03:03:53.917Z,14.32
2023-04-07T03:06:24.876Z,17.25
2023-04-07T03:09:07.110Z,15.15
2023-04-07T03:11:34.425Z,15.27
2023-04-07T03:14:01.489Z,15.35
2023-04-07T03:16:31.197Z,15.13
2023-04-07T03:19:09.465Z,16.02
2023-04-07T03:21:40.852Z,18.00
2023-04-07T03:24:08.947Z,18.63
2023-04-07T03:26:36.280Z,20.48
2023-04-07T03:29:06.538Z,19.88
2023-04-07T03:31:34.629Z,20.25
2023-04-07T03:34:01.706Z,18.88
2023-04-07T03:36:31.576Z,18.88
2023-04-07T03:39:02.448Z,18.92
2023-04-07T03:41:30.135Z,19.48
2023-04-07T03:43:57.145Z,21.13
2023-04-07T03:46:27.079Z,19.58
2023-04-07T03:48:54.626Z,18.67
2023-04-07T03:51:22.836Z,20.33
2023-04-07T03:53:54.937Z,19.63
2023-04-07T03:56:37.325Z,20.83
2023-04-07T03:59:04.827Z,18.83
2023-04-07T04:01:36.467Z,19.33
2023-04-07T04:04:12.646Z,21.40
2023-04-07T04:06:40.798Z,21.02
2023-04-07T04:09:19.166Z,20.05
2023-04-07T04:11:48.942Z,19.13
2023-04-07T04:14:16.734Z,19.38
2023-04-07T04:16:49.761Z,20.38
2023-04-07T04:22:15.192Z,20.25
2023-04-07T04:24:49.830Z,18.70
2023-04-07T04:27:17.425Z,20.40
2023-04-07T04:29:48.926Z,20.27
2023-04-07T04:32:19.421Z,18.83
2023-04-07T04:34:46.694Z,18.95
2023-04-07T04:37:14.447Z,20.00
2023-04-07T04:39:45.990Z,19.67
2023-04-07T04:42:16.640Z,18.65
2023-04-07T04:44:44.659Z,19.70
2023-04-07T04:47:13.763Z,18.50
2023-04-07T04:49:41.451Z,19.75
2023-04-07T04:52:08.920Z,19.80
2023-04-07T04:54:41.101Z,19.60
2023-04-07T04:57:10.134Z,20.33
2023-04-07T04:59:39.759Z,18.85
2023-04-07T05:02:07.112Z,20.10
2023-04-07T05:04:35.555Z,19.25
2023-04-07T05:07:16.373Z,19.55
2023-04-07T05:09:43.417Z,19.77
2023-04-07T05:12:10.762Z,21.00
2023-04-07T05:14:43.561Z,21.38
2023-04-07T05:17:10.884Z,21.10
2023-04-07T05:19:38.770Z,20.50
2023-04-07T05:22:13.855Z,23.98
2023-04-07T05:24:46.188Z,21.70
2023-04-07T05:27:13.782Z,21.77
2023-04-07T05:29:42.501Z,19.35
2023-04-07T05:32:19.929Z,16.65
2023-04-07T05:34:47.619Z,16.33
2023-04-07T05:37:16.268Z,19.02
2023-04-07T05:39:44.358Z,18.75
2023-04-07T05:42:14.133Z,18.20
2023-04-07T05:44:43.240Z,17.35
2023-04-07T05:47:11.476Z,17.48
2023-04-07T05:49:45.922Z,17.50
2023-04-07T05:52:14.580Z,15.75
2023-04-07T05:54:45.040Z,15.82
2023-04-07T05:57:14.477Z,18.05
2023-04-07T05:59:45.082Z,19.20
2023-04-07T06:02:13.618Z,18.52
2023-04-07T06:04:41.101Z,18.58
2023-04-07T06:07:11.844Z,17.95
2023-04-07T06:09:43.112Z,18.45
2023-04-07T06:12:12.283Z,18.13
2023-04-07T06:14:39.551Z,19.13
2023-04-07T06:17:07.105Z,18.05
2023-04-07T06:19:34.420Z,19.88
2023-04-07T06:22:01.765Z,18.45
2023-04-07T06:24:28.890Z,18.75
2023-04-07T06:26:56.954Z,18.02
2023-04-07T06:29:24.103Z,17.27
2023-04-07T06:31:51.622Z,16.10
2023-04-07T06:34:19.487Z,16.58
2023-04-07T06:36:47.003Z,17.85
2023-04-07T06:39:14.014Z,18.92
2023-04-07T06:41:43.203Z,70.50
2023-04-07T06:44:13.624Z,79.20
2023-04-07T06:46:42.351Z,59.25
2023-04-07T06:49:09.586Z,40.90
2023-04-07T06:51:37.007Z,24.05
2023-04-07T06:54:05.530Z,16.13
2023-04-07T06:56:33.537Z,17.30
2023-04-07T06:59:00.628Z,35.40
2023-04-07T07:01:28.279Z,27.23
2023-04-07T07:03:55.541Z,15.43
2023-04-07T07:06:23.011Z,25.38
2023-04-07T07:08:50.519Z,18.42
2023-04-07T07:11:17.931Z,21.63
2023-04-07T07:13:45.373Z,16.65
2023-04-07T07:16:12.962Z,16.13
2023-04-07T07:18:40.339Z,25.95
2023-04-07T07:21:08.290Z,58.55
2023-04-07T07:23:35.555Z,17.63
2023-04-07T07:26:03.888Z,15.57
2023-04-07T07:28:31.077Z,16.30
2023-04-07T07:30:58.452Z,16.63
2023-04-07T07:33:26.312Z,17.48
2023-04-07T07:35:53.732Z,17.15
2023-04-07T07:38:21.263Z,20.13
2023-04-07T07:40:48.638Z,17.85
2023-04-07T07:43:15.840Z,22.90
2023-04-07T07:45:43.241Z,18.13
2023-04-07T07:48:11.623Z,22.48
2023-04-07T07:50:39.097Z,20.55
2023-04-07T07:53:06.329Z,21.98
2023-04-07T07:55:33.696Z,20.02
2023-04-07T07:58:00.918Z,22.73
2023-04-07T08:00:28.737Z,24.33
2023-04-07T08:02:55.988Z,24.75
2023-04-07T08:05:23.569Z,22.70
2023-04-07T08:07:53.430Z,23.95
2023-04-07T08:10:23.360Z,24.50
2023-04-07T08:12:50.966Z,20.95
2023-04-07T08:15:18.273Z,22.67
2023-04-07T08:17:46.538Z,22.45
2023-04-07T08:20:14.062Z,23.23
2023-04-07T08:22:41.422Z,24.00
2023-04-07T08:25:09.179Z,21.25
2023-04-07T08:27:36.412Z,20.75
2023-04-07T08:30:08.920Z,22.33
2023-04-07T08:32:42.119Z,20.25
2023-04-07T08:35:10.012Z,23.10
2023-04-07T08:37:39.126Z,26.35
2023-04-07T08:40:07.297Z,24.42
2023-04-07T08:42:35.320Z,23.75
2023-04-07T08:45:07.637Z,22.38
2023-04-07T08:47:36.794Z,22.85
2023-04-07T08:50:09.323Z,24.35
2023-04-07T08:52:51.497Z,23.42
2023-04-07T08:55:19.422Z,25.05
2023-04-07T08:57:47.830Z,26.45
2023-04-07T09:00:15.631Z,24.38
2023-04-07T09:02:48.973Z,22.95
2023-04-07T09:05:16.709Z,21.52
2023-04-07T09:07:44.143Z,20.75
2023-04-07T09:10:12.166Z,19.30
2023-04-07T09:12:39.996Z,22.90
2023-04-07T09:15:09.067Z,19.70
2023-04-07T09:17:36.801Z,19.00
2023-04-07T09:20:04.958Z,20.20
2023-04-07T09:22:45.590Z,19.55
2023-04-07T09:25:16.110Z,18.73
2023-04-07T09:28:04.271Z,17.00
2023-04-07T09:30:33.676Z,16.55
2023-04-07T09:33:02.136Z,17.85
2023-04-07T09:35:30.034Z,16.70
2023-04-07T09:38:06.472Z,16.40
2023-04-07T09:40:34.615Z,18.33
2023-04-07T09:43:02.954Z,17.45
2023-04-07T09:45:35.179Z,17.77
2023-04-07T09:48:20.134Z,18.25
2023-04-07T09:50:49.513Z,18.30
2023-04-07T09:53:17.273Z,17.63
2023-04-07T09:55:45.312Z,17.75
2023-04-07T09:58:14.094Z,18.27
2023-04-07T10:00:42.345Z,18.53
2023-04-07T10:03:09.772Z,17.45
2023-04-07T10:05:38.849Z,17.45
2023-04-07T10:08:10.283Z,17.58
2023-04-07T10:10:42.423Z,17.88
2023-04-07T10:13:09.543Z,17.20
2023-04-07T10:15:37.304Z,16.52
2023-04-07T10:18:07.448Z,17.10
2023-04-07T10:20:37.844Z,16.98
2023-04-07T10:25:40.153Z,16.00
2023-04-07T10:28:10.030Z,15.60
2023-04-07T10:30:42.542Z,15.35
2023-04-07T10:33:09.820Z,15.25
2023-04-07T10:36:07.082Z,15.80
2023-04-07T10:38:34.561Z,15.52
2023-04-07T10:41:35.058Z,15.23
2023-04-07T10:44:06.863Z,15.20
2023-04-07T10:46:49.447Z,14.70
2023-04-07T10:49:20.058Z,15.38
2023-04-07T10:52:11.502Z,15.30
2023-04-07T10:54:39.953Z,15.75
2023-04-07T10:57:14.497Z,16.00
2023-04-07T11:00:11.529Z,18.17
2023-04-07T11:02:41.827Z,16.45
2023-04-07T11:05:22.762Z,15.60
2023-04-07T11:07:59.392Z,14.93
2023-04-07T11:10:26.783Z,14.73
2023-04-07T11:13:56.122Z,15.82
2023-04-07T11:16:42.437Z,15.52
2023-04-07T11:19:10.107Z,16.42
2023-04-07T11:21:37.852Z,16.63
2023-04-07T11:24:06.112Z,15.82
2023-04-07T11:26:41.847Z,14.98
2023-04-07T11:29:10.516Z,14.27
2023-04-07T11:31:38.767Z,16.40
2023-04-07T11:34:06.292Z,14.50
2023-04-07T11:36:41.713Z,14.05
2023-04-07T11:39:23.266Z,13.45
2023-04-07T11:41:51.609Z,14.23
2023-04-07T11:44:19.132Z,14.35
2023-04-07T11:46:56.860Z,19.85
2023-04-07T11:49:26.084Z,12.75
2023-04-07T11:52:09.166Z,13.35
2023-04-07T11:54:54.621Z,12.13
2023-04-07T11:57:29.847Z,12.50
2023-04-07T12:00:11.724Z,12.25
2023-04-07T12:02:39.639Z,11.85
2023-04-07T12:05:07.919Z,11.95
2023-04-07T12:11:04.685Z,10.57
2023-04-07T12:13:32.116Z,10.98
2023-04-07T12:16:00.030Z,11.75
2023-04-07T12:18:28.334Z,11.57
2023-04-07T12:20:56.097Z,11.70
2023-04-07T12:23:23.589Z,10.73
2023-04-07T12:25:50.658Z,10.15
2023-04-07T12:28:18.229Z,10.15
2023-04-07T12:30:45.278Z,9.43
2023-04-07T12:33:12.852Z,9.85
2023-04-07T12:35:40.504Z,10.65
2023-04-07T12:38:08.436Z,9.75
2023-04-07T12:40:36.618Z,9.70
2023-04-07T12:43:05.989Z,9.85
2023-04-07T12:45:33.473Z,8.95
2023-04-07T12:48:01.156Z,10.30
2023-04-07T12:50:29.321Z,9.68
2023-04-07T12:52:59.788Z,8.93
2023-04-07T12:55:27.003Z,9.52
2023-04-07T12:57:55.869Z,10.52
2023-04-07T13:00:23.166Z,9.85
2023-04-07T13:02:51.399Z,11.00
2023-04-07T13:05:19.034Z,8.55
2023-04-07T13:07:49.327Z,9.65
2023-04-07T13:10:17.279Z,9.52
2023-04-07T13:12:45.048Z,9.93
2023-04-07T13:15:12.370Z,10.60
2023-04-07T13:17:40.212Z,11.32
2023-04-07T13:20:08.224Z,10.02
2023-04-07T13:22:36.115Z,10.00
2023-04-07T13:25:03.775Z,10.07
2023-04-07T13:27:31.380Z,9.52
2023-04-07T13:29:58.689Z,9.85
2023-04-07T13:32:27.299Z,13.48
2023-04-07T13:34:54.670Z,11.80
2023-04-07T13:37:22.202Z,9.65
2023-04-07T13:39:49.597Z,10.98
2023-04-07T13:42:17.527Z,10.93
2023-04-07T13:44:46.444Z,10.90
2023-04-07T13:47:19.691Z,8.70
2023-04-07T13:49:51.988Z,9.70
2023-04-07T13:52:19.858Z,9.45
2023-04-07T13:54:47.041Z,8.80
2023-04-07T13:57:20.806Z,9.80
2023-04-07T13:59:49.721Z,10.23
2023-04-07T14:02:18.703Z,9.52
2023-04-07T14:04:46.541Z,8.77
2023-04-07T14:07:14.154Z,8.57
2023-04-07T14:09:42.965Z,9.85
2023-04-07T14:12:10.833Z,9.33
2023-04-07T14:14:38.075Z,10.18
2023-04-07T14:17:05.498Z,9.13
2023-04-07T14:19:33.535Z,9.38
2023-04-07T14:22:01.441Z,9.05
2023-04-07T14:24:28.700Z,9.77
2023-04-07T14:26:56.626Z,10.32
2023-04-07T14:29:33.824Z,9.02
2023-04-07T14:32:17.691Z,9.05
2023-04-07T14:34:44.996Z,9.40
2023-04-07T14:37:14.168Z,9.00
2023-04-07T14:39:45.912Z,8.98
2023-04-07T14:42:23.404Z,9.07
2023-04-07T14:44:51.115Z,9.90
2023-04-07T14:47:19.290Z,9.30
2023-04-07T14:49:46.605Z,9.15
2023-04-07T14:52:14.220Z,9.88
2023-04-07T14:54:41.474Z,9.45
2023-04-07T14:57:09.368Z,9.35
2023-04-07T14:59:36.695Z,9.57
2023-04-07T15:02:04.401Z,11.60
2023-04-07T15:04:33.136Z,9.40
2023-04-07T15:07:00.880Z,9.45
2023-04-07T15:09:28.295Z,9.02
2023-04-07T15:11:56.642Z,9.75
2023-04-07T15:14:23.749Z,10.18
2023-04-07T15:16:51.212Z,10.45
2023-04-07T15:19:18.470Z,11.05
2023-04-07T15:21:46.039Z,10.75
2023-04-07T15:24:14.841Z,10.25
2023-04-07T15:26:43.981Z,11.10
2023-04-07T15:29:11.427Z,10.95
2023-04-07T15:31:39.036Z,11.05
2023-04-07T15:34:06.598Z,9.93
2023-04-07T15:36:34.278Z,11.18
2023-04-07T15:39:06.778Z,11.50
2023-04-07T15:41:34.422Z,11.55
2023-04-07T15:44:04.627Z,11.30
2023-04-07T15:46:32.503Z,12.13
2023-04-07T15:49:00.343Z,13.10
2023-04-07T15:51:29.824Z,12.95
2023-04-07T15:53:57.269Z,14.02
2023-04-07T15:56:25.022Z,12.27
2023-04-07T15:58:52.501Z,12.32
2023-04-07T16:01:20.894Z,11.82
2023-04-07T16:03:48.698Z,11.63
2023-04-07T16:06:16.556Z,11.25
2023-04-07T16:08:43.704Z,12.00
2023-04-07T16:11:11.293Z,11.88
2023-04-07T16:13:38.801Z,12.07
2023-04-07T16:16:07.999Z,12.35
2023-04-07T16:18:35.419Z,11.45
2023-04-07T16:21:04.691Z,12.35
2023-04-07T16:23:32.200Z,11.80
2023-04-07T16:25:59.795Z,12.85
2023-04-07T16:28:27.422Z,11.68
2023-04-07T16:30:54.879Z,11.80
2023-04-07T16:33:25.843Z,17.58
2023-04-07T16:35:53.659Z,16.45
2023-04-07T16:38:20.819Z,14.20
2023-04-07T16:41:02.699Z,14.48
2023-04-07T16:43:31.344Z,12.20
2023-04-07T16:46:00.207Z,10.80
2023-04-07T16:48:27.670Z,10.88
2023-04-07T16:50:55.098Z,11.23
2023-04-07T16:53:22.166Z,10.65
2023-04-07T16:55:49.864Z,10.88
2023-04-07T16:58:19.072Z,9.98
2023-04-07T17:00:46.856Z,10.20
2023-04-07T17:03:15.419Z,10.18
2023-04-07T17:05:44.829Z,9.73
2023-04-07T17:08:12.284Z,11.00
2023-04-07T17:10:39.790Z,9.57
2023-04-07T17:13:06.977Z,10.27
2023-04-07T17:15:38.214Z,9.27
2023-04-07T17:18:05.628Z,9.73
2023-04-07T17:20:33.790Z,9.68
2023-04-07T17:23:01.374Z,9.52
2023-04-07T17:25:29.000Z,9.85
2023-04-07T17:27:56.449Z,10.20
2023-04-07T17:30:24.135Z,11.20
2023-04-07T17:32:53.559Z,12.73
2023-04-07T17:37:49.434Z,14.57
2023-04-07T17:40:17.008Z,11.68
2023-04-07T17:42:44.791Z,10.02
2023-04-07T17:45:12.739Z,10.77
2023-04-07T17:47:40.552Z,12.32
2023-04-07T17:50:09.114Z,12.50
2023-04-07T17:52:37.255Z,11.02
2023-04-07T17:55:05.772Z,10.10
2023-04-07T17:57:33.638Z,9.50
2023-04-07T18:00:01.671Z,11.15
2023-04-07T18:02:29.540Z,10.10
2023-04-07T18:05:01.210Z,10.93
2023-04-07T18:07:29.651Z,11.50
2023-04-07T18:10:04.782Z,11.50
2023-04-07T18:12:32.217Z,11.88
2023-04-07T18:14:59.967Z,11.82
2023-04-07T18:17:27.527Z,14.60
2023-04-07T18:19:55.507Z,9.52
2023-04-07T18:22:22.994Z,8.63
2023-04-07T18:24:53.266Z,9.60
2023-04-07T18:29:52.112Z,9.90
2023-04-07T18:32:19.174Z,10.18
2023-04-07T18:34:47.908Z,8.38
2023-04-07T18:37:15.582Z,9.10
2023-04-07T18:39:43.133Z,9.15
2023-04-07T18:42:10.550Z,9.32
2023-04-07T18:44:38.450Z,10.20
2023-04-07T18:47:06.137Z,9.77
2023-04-07T18:49:34.249Z,9.32
2023-04-07T18:52:05.117Z,9.77
2023-04-07T18:54:33.228Z,10.27
2023-04-07T18:57:00.449Z,10.77
2023-04-07T18:59:28.638Z,10.90
2023-04-07T19:01:56.960Z,11.05
2023-04-07T19:04:25.204Z,11.30
2023-04-07T19:06:52.641Z,10.07
2023-04-07T19:09:21.564Z,10.98
2023-04-07T19:11:49.402Z,10.70
2023-04-07T19:14:17.159Z,11.77
2023-04-07T19:16:46.099Z,10.70
2023-04-07T19:19:14.277Z,10.67
2023-04-07T19:21:41.622Z,11.07
2023-04-07T19:24:09.233Z,11.90
2023-04-07T19:26:36.848Z,12.05
2023-04-07T19:29:04.879Z,11.13
2023-04-07T19:31:32.312Z,12.00
2023-04-07T19:34:00.443Z,11.82
2023-04-07T19:36:28.188Z,16.23
2023-04-07T19:38:56.017Z,15.13
2023-04-07T19:41:23.429Z,17.30
2023-04-07T19:43:51.838Z,20.27
2023-04-07T19:46:19.664Z,14.80
2023-04-07T19:48:48.074Z,14.90
2023-04-07T19:51:16.006Z,25.55
2023-04-07T19:53:44.087Z,20.45
2023-04-07T19:56:14.187Z,13.65
2023-04-07T19:58:42.553Z,13.55
2023-04-07T20:01:18.073Z,14.32
2023-04-07T20:03:46.746Z,12.93
2023-04-07T20:06:15.377Z,13.10
2023-04-07T20:08:44.149Z,13.30
2023-04-07T20:11:13.149Z,13.05
2023-04-07T20:13:41.759Z,15.82
2023-04-07T20:16:10.538Z,16.17
2023-04-07T20:18:39.529Z,14.93
2023-04-07T20:21:07.727Z,14.27
2023-04-07T20:23:36.793Z,14.25
2023-04-07T20:26:05.446Z,14.48
2023-04-07T20:28:34.327Z,14.65
2023-04-07T20:31:02.592Z,14.02
2023-04-07T20:33:30.522Z,15.38
2023-04-07T20:35:58.224Z,18.02
2023-04-07T20:38:26.601Z,16.83
2023-04-07T20:40:54.549Z,14.63
2023-04-07T20:43:23.967Z,14.90
2023-04-07T20:45:52.416Z,14.75
2023-04-07T20:48:24.203Z,15.80
2023-04-07T20:50:52.245Z,16.63
2023-04-07T20:53:20.314Z,17.20
2023-04-07T20:55:48.530Z,17.77
2023-04-07T20:58:17.869Z,19.40
2023-04-07T21:00:46.411Z,21.25
2023-04-07T21:03:14.624Z,18.80
2023-04-07T21:05:43.489Z,17.90
2023-04-07T21:08:13.966Z,17.30
2023-04-07T21:10:42.021Z,15.65
2023-04-07T21:13:10.088Z,18.13
2023-04-07T21:15:37.961Z,16.63
2023-04-07T21:18:05.957Z,17.50
2023-04-07T21:20:33.293Z,18.05
2023-04-07T21:23:00.971Z,18.48
2023-04-07T21:25:28.204Z,17.67
2023-04-07T21:27:55.654Z,17.55
2023-04-07T21:30:23.258Z,18.50
2023-04-07T21:32:50.764Z,16.80
2023-04-07T21:35:19.736Z,16.42
2023-04-07T21:37:47.157Z,17.52
2023-04-07T21:40:14.380Z,17.02
2023-04-07T21:42:41.954Z,15.63
2023-04-07T21:45:09.803Z,15.30
2023-04-07T21:47:37.236Z,15.98
2023-04-07T21:50:04.955Z,16.15
2023-04-07T21:52:32.734Z,15.90
2023-04-07T21:54:59.967Z,15.70
2023-04-07T21:57:27.492Z,16.23
2023-04-07T21:59:54.852Z,16.35
2023-04-07T22:02:22.430Z,16.35
2023-04-07T22:04:49.714Z,16.20
2023-04-07T22:07:17.361Z,15.77
2023-04-07T22:09:44.533Z,16.38
2023-04-07T22:12:12.221Z,17.90
2023-04-07T22:14:39.380Z,16.70
2023-04-07T22:17:07.024Z,17.25
2023-04-07T22:19:34.183Z,17.92
2023-04-07T22:22:01.573Z,17.48
2023-04-07T22:24:28.671Z,19.38
2023-04-07T22:26:57.322Z,17.52
2023-04-07T22:29:24.360Z,17.42
2023-04-07T22:31:51.724Z,18.40
2023-04-07T22:34:18.859Z,19.42
2023-04-07T22:36:46.306Z,18.33
2023-04-07T22:39:13.352Z,17.02
2023-04-07T22:41:40.749Z,16.83
2023-04-07T22:44:07.763Z,16.85
2023-04-07T22:46:35.040Z,16.08
2023-04-07T22:49:02.127Z,17.55
2023-04-07T22:51:29.479Z,17.60
2023-04-07T22:53:57.205Z,17.10
2023-04-07T22:56:24.645Z,16.65
2023-04-07T22:58:52.064Z,17.40
2023-04-07T23:01:19.593Z,18.85
2023-04-07T23:03:47.373Z,18.52
2023-04-07T23:06:14.832Z,17.33
2023-04-07T23:08:41.854Z,16.45
2023-04-07T23:11:09.907Z,16.73
2023-04-07T23:13:38.011Z,17.23
2023-04-07T23:16:06.393Z,18.23
2023-04-07T23:18:33.532Z,17.80
2023-04-07T23:21:01.142Z,17.45
2023-04-07T23:23:28.145Z,18.20
2023-04-07T23:25:55.424Z,18.40
2023-04-07T23:28:22.405Z,17.92
2023-04-07T23:30:49.690Z,18.10
2023-04-07T23:33:16.849Z,18.00
2023-04-07T23:35:44.286Z,17.27
2023-04-07T23:38:11.548Z,18.60
2023-04-07T23:40:38.927Z,17.50
2023-04-07T23:43:06.751Z,17.35
2023-04-07T23:45:34.058Z,17.50
2023-04-07T23:48:01.139Z,17.20
2023-04-07T23:50:28.514Z,16.90
2023-04-07T23:52:56.240Z,17.60
2023-04-07T23:55:23.898Z,17.45
2023-04-07T23:57:50.961Z,18.05
